sensor_id;sensor_type;location;lat;lon;timestamp;temperature;humidity
5711;DHT22;61291;52.524;13.422;2023-02-15T00:01:48;4.10;99.90
5711;DHT22;61291;52.524;13.422;2023-02-15T00:04:16;3.90;99.90
5711;DHT22;61291;52.524;13.422;2023-02-15T00:06:41;3.70;99.90
5711;DHT22;61291;52.524;13.422;2023-02-15T00:09:09;3.60;99.90
5711;DHT22;61291;52.524;13.422;2023-02-15T00:11:34;3.50;99.90
5711;DHT22;61291;52.524;13.422;2023-02-15T00:14:17;3.40;99.90
5711;DHT22;61291;52.524;13.422;2023-02-15T00:16:43;3.30;99.90
5711;DHT22;61291;52.524;13.422;2023-02-15T00:19:11;3.20;99.90
5711;DHT22;61291;52.524;13.422;2023-02-15T00:21:38;3.10;99.90
5711;DHT22;61291;52.524;13.422;2023-02-15T00:24:06;3.00;99.90
5711;DHT22;61291;52.524;13.422;2023-02-15T00:26:32;3.00;99.90
5711;DHT22;61291;52.524;13.422;2023-02-15T00:28:58;2.90;99.90
5711;DHT22;61291;52.524;13.422;2023-02-15T00:31:24;2.90;99.90
5711;DHT22;61291;52.524;13.422;2023-02-15T00:33:50;2.90;99.90
5711;DHT22;61291;52.524;13.422;2023-02-15T00:36:16;2.80;99.90
5711;DHT22;61291;52.524;13.422;2023-02-15T00:38:42;2.80;99.90
5711;DHT22;61291;52.524;13.422;2023-02-15T00:41:08;2.80;99.90
5711;DHT22;61291;52.524;13.422;2023-02-15T00:43:35;2.80;99.90
5711;DHT22;61291;52.524;13.422;2023-02-15T00:46:01;2.70;99.90
5711;DHT22;61291;52.524;13.422;2023-02-15T00:48:27;2.70;99.90
5711;DHT22;61291;52.524;13.422;2023-02-15T00:50:55;2.60;99.90
5711;DHT22;61291;52.524;13.422;2023-02-15T00:53:21;2.60;99.90
5711;DHT22;61291;52.524;13.422;2023-02-15T00:55:47;2.50;99.90
5711;DHT22;61291;52.524;13.422;2023-02-15T00:58:13;2.50;99.90
5711;DHT22;61291;52.524;13.422;2023-02-15T01:00:40;2.50;99.90
5711;DHT22;61291;52.524;13.422;2023-02-15T01:03:06;2.50;99.90
5711;DHT22;61291;52.524;13.422;2023-02-15T01:05:31;2.50;99.90
5711;DHT22;61291;52.524;13.422;2023-02-15T01:07:58;2.50;99.90
5711;DHT22;61291;52.524;13.422;2023-02-15T01:10:24;2.40;99.90
5711;DHT22;61291;52.524;13.422;2023-02-15T01:12:51;2.40;99.90
5711;DHT22;61291;52.524;13.422;2023-02-15T01:15:17;2.40;99.90
5711;DHT22;61291;52.524;13.422;2023-02-15T01:17:43;2.40;99.90
5711;DHT22;61291;52.524;13.422;2023-02-15T01:20:11;2.30;99.90
5711;DHT22;61291;52.524;13.422;2023-02-15T01:22:37;2.30;99.90
5711;DHT22;61291;52.524;13.422;2023-02-15T01:25:03;2.30;99.90
5711;DHT22;61291;52.524;13.422;2023-02-15T01:27:28;2.20;99.90
5711;DHT22;61291;52.524;13.422;2023-02-15T01:29:56;2.20;99.90
5711;DHT22;61291;52.524;13.422;2023-02-15T01:32:21;2.20;99.90
5711;DHT22;61291;52.524;13.422;2023-02-15T01:34:47;2.10;99.90
5711;DHT22;61291;52.524;13.422;2023-02-15T01:37:12;2.10;99.90
5711;DHT22;61291;52.524;13.422;2023-02-15T01:39:38;2.10;99.90
5711;DHT22;61291;52.524;13.422;2023-02-15T01:42:03;2.10;99.90
5711;DHT22;61291;52.524;13.422;2023-02-15T01:50:02;2.00;99.90
5711;DHT22;61291;52.524;13.422;2023-02-15T01:52:28;2.00;99.90
5711;DHT22;61291;52.524;13.422;2023-02-15T01:54:54;2.00;99.90
5711;DHT22;61291;52.524;13.422;2023-02-15T01:57:23;1.90;99.90
5711;DHT22;61291;52.524;13.422;2023-02-15T01:59:56;1.90;99.90
5711;DHT22;61291;52.524;13.422;2023-02-15T02:02:23;1.90;99.90
5711;DHT22;61291;52.524;13.422;2023-02-15T02:04:52;1.90;99.90
5711;DHT22;61291;52.524;13.422;2023-02-15T02:07:24;1.90;99.90
5711;DHT22;61291;52.524;13.422;2023-02-15T02:09:52;1.80;99.90
5711;DHT22;61291;52.524;13.422;2023-02-15T02:12:18;1.80;99.90
5711;DHT22;61291;52.524;13.422;2023-02-15T02:14:47;1.70;99.90
5711;DHT22;61291;52.524;13.422;2023-02-15T02:17:22;1.70;99.90
5711;DHT22;61291;52.524;13.422;2023-02-15T02:25:36;1.70;99.90
5711;DHT22;61291;52.524;13.422;2023-02-15T02:31:53;1.80;99.90
5711;DHT22;61291;52.524;13.422;2023-02-15T02:34:30;1.80;99.90
5711;DHT22;61291;52.524;13.422;2023-02-15T02:39:53;1.70;99.90
5711;DHT22;61291;52.524;13.422;2023-02-15T02:42:34;1.70;99.90
5711;DHT22;61291;52.524;13.422;2023-02-15T02:45:09;1.70;99.90
5711;DHT22;61291;52.524;13.422;2023-02-15T02:47:43;1.70;99.90
5711;DHT22;61291;52.524;13.422;2023-02-15T02:50:13;1.60;99.90
5711;DHT22;61291;52.524;13.422;2023-02-15T02:52:49;1.60;99.90
5711;DHT22;61291;52.524;13.422;2023-02-15T02:55:33;1.70;99.90
5711;DHT22;61291;52.524;13.422;2023-02-15T03:00:32;1.70;99.90
5711;DHT22;61291;52.524;13.422;2023-02-15T03:03:17;1.80;99.90
5711;DHT22;61291;52.524;13.422;2023-02-15T03:05:47;1.80;99.90
5711;DHT22;61291;52.524;13.422;2023-02-15T03:08:16;1.60;99.90
5711;DHT22;61291;52.524;13.422;2023-02-15T03:10:48;1.60;99.90
5711;DHT22;61291;52.524;13.422;2023-02-15T03:13:16;1.50;99.90
5711;DHT22;61291;52.524;13.422;2023-02-15T03:15:43;1.40;99.90
5711;DHT22;61291;52.524;13.422;2023-02-15T03:18:31;1.30;99.90
5711;DHT22;61291;52.524;13.422;2023-02-15T03:21:01;1.30;99.90
5711;DHT22;61291;52.524;13.422;2023-02-15T03:23:28;1.30;99.90
5711;DHT22;61291;52.524;13.422;2023-02-15T03:25:59;1.30;99.90
5711;DHT22;61291;52.524;13.422;2023-02-15T03:28:31;1.30;99.90
5711;DHT22;61291;52.524;13.422;2023-02-15T03:31:02;1.30;99.90
5711;DHT22;61291;52.524;13.422;2023-02-15T03:33:28;1.30;99.90
5711;DHT22;61291;52.524;13.422;2023-02-15T03:36:07;1.20;99.90
5711;DHT22;61291;52.524;13.422;2023-02-15T03:38:42;1.10;99.90
5711;DHT22;61291;52.524;13.422;2023-02-15T03:41:11;1.20;99.90
5711;DHT22;61291;52.524;13.422;2023-02-15T03:46:25;1.10;99.90
5711;DHT22;61291;52.524;13.422;2023-02-15T03:48:56;1.10;99.90
5711;DHT22;61291;52.524;13.422;2023-02-15T03:51:29;1.10;99.90
5711;DHT22;61291;52.524;13.422;2023-02-15T03:54:13;1.10;99.90
5711;DHT22;61291;52.524;13.422;2023-02-15T03:57:01;1.10;99.90
5711;DHT22;61291;52.524;13.422;2023-02-15T03:59:45;1.10;99.90
5711;DHT22;61291;52.524;13.422;2023-02-15T04:02:53;1.00;99.90
5711;DHT22;61291;52.524;13.422;2023-02-15T04:05:20;1.00;99.90
5711;DHT22;61291;52.524;13.422;2023-02-15T04:07:46;1.00;99.90
5711;DHT22;61291;52.524;13.422;2023-02-15T04:10:11;1.00;99.90
5711;DHT22;61291;52.524;13.422;2023-02-15T04:12:56;1.00;99.90
5711;DHT22;61291;52.524;13.422;2023-02-15T04:15:22;0.90;99.90
5711;DHT22;61291;52.524;13.422;2023-02-15T04:18:06;0.90;99.90
5711;DHT22;61291;52.524;13.422;2023-02-15T04:20:31;0.80;99.90
5711;DHT22;61291;52.524;13.422;2023-02-15T04:23:15;0.80;99.90
5711;DHT22;61291;52.524;13.422;2023-02-15T04:26:03;0.70;99.90
5711;DHT22;61291;52.524;13.422;2023-02-15T04:28:29;0.80;99.90
5711;DHT22;61291;52.524;13.422;2023-02-15T04:30:55;0.70;99.90
5711;DHT22;61291;52.524;13.422;2023-02-15T04:33:20;0.70;99.90
5711;DHT22;61291;52.524;13.422;2023-02-15T04:35:46;0.60;99.90
5711;DHT22;61291;52.524;13.422;2023-02-15T04:38:11;0.60;99.90
5711;DHT22;61291;52.524;13.422;2023-02-15T04:40:37;0.60;99.90
5711;DHT22;61291;52.524;13.422;2023-02-15T04:43:02;0.60;99.90
5711;DHT22;61291;52.524;13.422;2023-02-15T04:45:28;0.60;99.90
5711;DHT22;61291;52.524;13.422;2023-02-15T04:47:53;0.50;99.90
5711;DHT22;61291;52.524;13.422;2023-02-15T04:50:19;0.40;99.90
5711;DHT22;61291;52.524;13.422;2023-02-15T04:52:44;0.30;99.90
5711;DHT22;61291;52.524;13.422;2023-02-15T04:55:10;0.30;99.90
5711;DHT22;61291;52.524;13.422;2023-02-15T04:57:35;0.20;99.90
5711;DHT22;61291;52.524;13.422;2023-02-15T05:00:01;0.20;99.90
5711;DHT22;61291;52.524;13.422;2023-02-15T05:02:26;0.20;99.90
5711;DHT22;61291;52.524;13.422;2023-02-15T05:04:52;0.20;99.90
5711;DHT22;61291;52.524;13.422;2023-02-15T05:07:17;0.30;99.90
5711;DHT22;61291;52.524;13.422;2023-02-15T05:09:45;0.30;99.90
5711;DHT22;61291;52.524;13.422;2023-02-15T05:12:11;0.30;99.90
5711;DHT22;61291;52.524;13.422;2023-02-15T05:14:36;0.20;99.90
5711;DHT22;61291;52.524;13.422;2023-02-15T05:17:01;0.10;99.90
5711;DHT22;61291;52.524;13.422;2023-02-15T05:19:28;0.10;99.90
5711;DHT22;61291;52.524;13.422;2023-02-15T05:21:54;0.10;99.90
5711;DHT22;61291;52.524;13.422;2023-02-15T05:24:20;0.10;99.90
5711;DHT22;61291;52.524;13.422;2023-02-15T05:27:04;0.10;99.90
5711;DHT22;61291;52.524;13.422;2023-02-15T05:29:49;0.20;99.90
5711;DHT22;61291;52.524;13.422;2023-02-15T05:32:15;0.30;99.90
5711;DHT22;61291;52.524;13.422;2023-02-15T05:34:40;0.40;99.90
5711;DHT22;61291;52.524;13.422;2023-02-15T05:37:06;0.50;99.90
5711;DHT22;61291;52.524;13.422;2023-02-15T05:39:32;0.60;99.90
5711;DHT22;61291;52.524;13.422;2023-02-15T05:41:59;0.80;99.90
5711;DHT22;61291;52.524;13.422;2023-02-15T05:44:25;0.90;99.90
5711;DHT22;61291;52.524;13.422;2023-02-15T05:46:50;1.00;99.90
5711;DHT22;61291;52.524;13.422;2023-02-15T05:49:16;1.00;99.90
5711;DHT22;61291;52.524;13.422;2023-02-15T05:51:41;1.10;99.90
5711;DHT22;61291;52.524;13.422;2023-02-15T05:54:07;1.20;99.90
5711;DHT22;61291;52.524;13.422;2023-02-15T05:56:32;1.30;99.90
5711;DHT22;61291;52.524;13.422;2023-02-15T05:58:58;1.30;99.90
5711;DHT22;61291;52.524;13.422;2023-02-15T06:01:23;1.50;99.90
5711;DHT22;61291;52.524;13.422;2023-02-15T06:03:49;1.50;99.90
5711;DHT22;61291;52.524;13.422;2023-02-15T06:06:15;1.50;99.90
5711;DHT22;61291;52.524;13.422;2023-02-15T06:08:40;1.60;99.90
5711;DHT22;61291;52.524;13.422;2023-02-15T06:11:06;1.60;99.90
5711;DHT22;61291;52.524;13.422;2023-02-15T06:13:32;1.60;99.90
5711;DHT22;61291;52.524;13.422;2023-02-15T06:15:58;1.70;99.90
5711;DHT22;61291;52.524;13.422;2023-02-15T06:18:24;1.70;99.90
5711;DHT22;61291;52.524;13.422;2023-02-15T06:20:50;1.80;99.90
5711;DHT22;61291;52.524;13.422;2023-02-15T06:23:16;1.80;99.90
5711;DHT22;61291;52.524;13.422;2023-02-15T06:25:42;1.80;99.90
5711;DHT22;61291;52.524;13.422;2023-02-15T06:28:09;1.80;99.90
5711;DHT22;61291;52.524;13.422;2023-02-15T06:30:34;1.80;99.90
5711;DHT22;61291;52.524;13.422;2023-02-15T06:33:00;1.80;99.90
5711;DHT22;61291;52.524;13.422;2023-02-15T06:35:26;1.80;99.90
5711;DHT22;61291;52.524;13.422;2023-02-15T06:37:51;1.90;99.90
5711;DHT22;61291;52.524;13.422;2023-02-15T06:40:17;2.00;99.90
5711;DHT22;61291;52.524;13.422;2023-02-15T06:42:42;2.00;99.90
5711;DHT22;61291;52.524;13.422;2023-02-15T06:45:09;2.10;99.90
5711;DHT22;61291;52.524;13.422;2023-02-15T06:47:35;2.20;99.90
5711;DHT22;61291;52.524;13.422;2023-02-15T06:50:01;2.30;99.90
5711;DHT22;61291;52.524;13.422;2023-02-15T06:52:26;2.30;99.90
5711;DHT22;61291;52.524;13.422;2023-02-15T06:54:53;2.40;99.90
5711;DHT22;61291;52.524;13.422;2023-02-15T06:57:19;2.40;99.90
5711;DHT22;61291;52.524;13.422;2023-02-15T06:59:44;2.50;99.90
5711;DHT22;61291;52.524;13.422;2023-02-15T07:02:13;2.60;99.90
5711;DHT22;61291;52.524;13.422;2023-02-15T07:04:39;2.60;99.90
5711;DHT22;61291;52.524;13.422;2023-02-15T07:07:08;2.70;99.90
5711;DHT22;61291;52.524;13.422;2023-02-15T07:09:34;2.80;99.90
5711;DHT22;61291;52.524;13.422;2023-02-15T07:11:59;2.90;99.90
5711;DHT22;61291;52.524;13.422;2023-02-15T07:14:43;2.90;99.90
5711;DHT22;61291;52.524;13.422;2023-02-15T07:17:09;3.00;99.90
5711;DHT22;61291;52.524;13.422;2023-02-15T07:19:34;3.10;99.90
5711;DHT22;61291;52.524;13.422;2023-02-15T07:22:00;3.10;99.90
5711;DHT22;61291;52.524;13.422;2023-02-15T07:24:25;3.20;99.90
5711;DHT22;61291;52.524;13.422;2023-02-15T07:26:51;3.20;99.90
5711;DHT22;61291;52.524;13.422;2023-02-15T07:29:16;3.30;99.90
5711;DHT22;61291;52.524;13.422;2023-02-15T07:31:43;3.40;99.90
5711;DHT22;61291;52.524;13.422;2023-02-15T07:34:10;3.50;99.90
5711;DHT22;61291;52.524;13.422;2023-02-15T07:36:36;3.50;99.90
5711;DHT22;61291;52.524;13.422;2023-02-15T07:39:02;3.60;99.90
5711;DHT22;61291;52.524;13.422;2023-02-15T07:41:27;3.70;99.90
5711;DHT22;61291;52.524;13.422;2023-02-15T07:43:53;3.80;99.90
5711;DHT22;61291;52.524;13.422;2023-02-15T07:46:18;3.90;99.90
5711;DHT22;61291;52.524;13.422;2023-02-15T07:48:45;4.00;99.90
5711;DHT22;61291;52.524;13.422;2023-02-15T07:51:11;4.10;99.90
5711;DHT22;61291;52.524;13.422;2023-02-15T07:53:38;4.20;99.90
5711;DHT22;61291;52.524;13.422;2023-02-15T07:56:11;4.30;99.90
5711;DHT22;61291;52.524;13.422;2023-02-15T07:58:38;4.30;99.90
5711;DHT22;61291;52.524;13.422;2023-02-15T08:01:26;4.40;99.90
5711;DHT22;61291;52.524;13.422;2023-02-15T08:03:53;4.50;99.90
5711;DHT22;61291;52.524;13.422;2023-02-15T08:06:20;4.60;99.90
5711;DHT22;61291;52.524;13.422;2023-02-15T08:08:46;4.60;99.90
5711;DHT22;61291;52.524;13.422;2023-02-15T08:19:20;4.50;99.90
5711;DHT22;61291;52.524;13.422;2023-02-15T08:21:48;4.60;99.90
5711;DHT22;61291;52.524;13.422;2023-02-15T08:24:16;4.60;99.90
5711;DHT22;61291;52.524;13.422;2023-02-15T08:26:43;4.70;99.90
5711;DHT22;61291;52.524;13.422;2023-02-15T08:29:10;4.80;99.90
5711;DHT22;61291;52.524;13.422;2023-02-15T08:31:36;4.80;99.90
5711;DHT22;61291;52.524;13.422;2023-02-15T08:34:03;4.90;99.90
5711;DHT22;61291;52.524;13.422;2023-02-15T08:36:30;4.90;99.90
5711;DHT22;61291;52.524;13.422;2023-02-15T08:39:01;5.00;99.90
5711;DHT22;61291;52.524;13.422;2023-02-15T08:41:37;5.10;99.90
5711;DHT22;61291;52.524;13.422;2023-02-15T08:44:07;5.20;99.90
5711;DHT22;61291;52.524;13.422;2023-02-15T08:46:36;5.40;99.90
5711;DHT22;61291;52.524;13.422;2023-02-15T08:49:02;5.40;99.90
5711;DHT22;61291;52.524;13.422;2023-02-15T08:51:29;5.50;99.90
5711;DHT22;61291;52.524;13.422;2023-02-15T08:53:57;5.60;99.90
5711;DHT22;61291;52.524;13.422;2023-02-15T08:56:26;5.70;99.90
5711;DHT22;61291;52.524;13.422;2023-02-15T08:58:55;5.80;99.90
5711;DHT22;61291;52.524;13.422;2023-02-15T09:01:27;6.00;99.90
5711;DHT22;61291;52.524;13.422;2023-02-15T09:04:03;6.20;99.90
5711;DHT22;61291;52.524;13.422;2023-02-15T09:06:29;6.30;99.90
5711;DHT22;61291;52.524;13.422;2023-02-15T09:08:55;6.50;99.90
5711;DHT22;61291;52.524;13.422;2023-02-15T09:11:29;6.70;99.90
5711;DHT22;61291;52.524;13.422;2023-02-15T09:14:00;6.70;99.90
5711;DHT22;61291;52.524;13.422;2023-02-15T09:16:29;6.90;99.90
5711;DHT22;61291;52.524;13.422;2023-02-15T09:18:56;7.10;99.90
5711;DHT22;61291;52.524;13.422;2023-02-15T09:21:23;7.20;99.90
5711;DHT22;61291;52.524;13.422;2023-02-15T09:23:51;7.40;99.90
5711;DHT22;61291;52.524;13.422;2023-02-15T09:26:19;7.50;99.90
5711;DHT22;61291;52.524;13.422;2023-02-15T09:28:45;7.60;99.90
5711;DHT22;61291;52.524;13.422;2023-02-15T09:31:21;7.80;99.90
5711;DHT22;61291;52.524;13.422;2023-02-15T09:33:48;7.90;99.90
5711;DHT22;61291;52.524;13.422;2023-02-15T09:36:18;7.90;99.90
5711;DHT22;61291;52.524;13.422;2023-02-15T09:38:52;8.10;99.90
5711;DHT22;61291;52.524;13.422;2023-02-15T09:44:43;8.10;99.90
5711;DHT22;61291;52.524;13.422;2023-02-15T09:47:16;8.20;99.90
5711;DHT22;61291;52.524;13.422;2023-02-15T09:50:07;8.20;99.90
5711;DHT22;61291;52.524;13.422;2023-02-15T10:00:56;8.20;99.90
5711;DHT22;61291;52.524;13.422;2023-02-15T10:03:27;8.20;99.90
5711;DHT22;61291;52.524;13.422;2023-02-15T10:06:11;8.20;99.90
5711;DHT22;61291;52.524;13.422;2023-02-15T10:09:02;8.00;99.90
5711;DHT22;61291;52.524;13.422;2023-02-15T10:11:55;7.80;99.90
5711;DHT22;61291;52.524;13.422;2023-02-15T10:20:56;7.10;99.90
5711;DHT22;61291;52.524;13.422;2023-02-15T10:26:31;6.90;99.90
5711;DHT22;61291;52.524;13.422;2023-02-15T10:29:10;6.90;99.90
5711;DHT22;61291;52.524;13.422;2023-02-15T10:34:18;6.70;99.90
5711;DHT22;61291;52.524;13.422;2023-02-15T10:39:47;6.60;99.90
5711;DHT22;61291;52.524;13.422;2023-02-15T10:42:36;6.50;99.90
5711;DHT22;61291;52.524;13.422;2023-02-15T10:45:39;6.50;99.90
5711;DHT22;61291;52.524;13.422;2023-02-15T10:48:22;6.50;99.90
5711;DHT22;61291;52.524;13.422;2023-02-15T10:50:54;6.50;99.90
5711;DHT22;61291;52.524;13.422;2023-02-15T10:56:19;6.50;99.90
5711;DHT22;61291;52.524;13.422;2023-02-15T11:05:02;6.60;99.90
5711;DHT22;61291;52.524;13.422;2023-02-15T11:07:41;6.60;99.90
5711;DHT22;61291;52.524;13.422;2023-02-15T11:10:13;6.70;99.90
5711;DHT22;61291;52.524;13.422;2023-02-15T11:12:47;6.70;99.90
5711;DHT22;61291;52.524;13.422;2023-02-15T11:15:45;6.60;99.90
5711;DHT22;61291;52.524;13.422;2023-02-15T11:18:36;6.70;99.90
5711;DHT22;61291;52.524;13.422;2023-02-15T11:21:28;6.70;99.90
5711;DHT22;61291;52.524;13.422;2023-02-15T11:23:59;6.80;99.90
5711;DHT22;61291;52.524;13.422;2023-02-15T11:26:37;6.80;99.90
5711;DHT22;61291;52.524;13.422;2023-02-15T11:31:55;6.80;99.90
5711;DHT22;61291;52.524;13.422;2023-02-15T11:34:56;6.90;99.90
5711;DHT22;61291;52.524;13.422;2023-02-15T11:37:34;7.10;99.90
5711;DHT22;61291;52.524;13.422;2023-02-15T11:40:02;7.10;99.90
5711;DHT22;61291;52.524;13.422;2023-02-15T11:42:30;7.10;99.90
5711;DHT22;61291;52.524;13.422;2023-02-15T11:45:27;7.10;99.90
5711;DHT22;61291;52.524;13.422;2023-02-15T11:47:54;7.20;99.90
5711;DHT22;61291;52.524;13.422;2023-02-15T11:50:26;7.10;99.90
5711;DHT22;61291;52.524;13.422;2023-02-15T11:53:02;7.20;99.90
5711;DHT22;61291;52.524;13.422;2023-02-15T11:55:29;7.20;99.90
5711;DHT22;61291;52.524;13.422;2023-02-15T12:00:43;7.30;99.90
5711;DHT22;61291;52.524;13.422;2023-02-15T12:06:03;7.40;99.90
5711;DHT22;61291;52.524;13.422;2023-02-15T12:08:42;7.50;99.90
5711;DHT22;61291;52.524;13.422;2023-02-15T12:11:15;7.60;99.90
5711;DHT22;61291;52.524;13.422;2023-02-15T12:14:07;7.70;99.90
5711;DHT22;61291;52.524;13.422;2023-02-15T12:16:54;7.80;99.90
5711;DHT22;61291;52.524;13.422;2023-02-15T12:19:33;7.90;99.90
5711;DHT22;61291;52.524;13.422;2023-02-15T12:22:03;7.90;99.90
5711;DHT22;61291;52.524;13.422;2023-02-15T12:24:32;8.00;99.90
5711;DHT22;61291;52.524;13.422;2023-02-15T12:27:16;8.10;99.90
5711;DHT22;61291;52.524;13.422;2023-02-15T12:29:46;8.20;99.90
5711;DHT22;61291;52.524;13.422;2023-02-15T12:32:26;8.30;99.90
5711;DHT22;61291;52.524;13.422;2023-02-15T12:34:59;8.30;99.90
5711;DHT22;61291;52.524;13.422;2023-02-15T12:37:29;8.40;99.90
5711;DHT22;61291;52.524;13.422;2023-02-15T12:39:59;8.50;99.90
5711;DHT22;61291;52.524;13.422;2023-02-15T12:42:27;8.60;99.90
5711;DHT22;61291;52.524;13.422;2023-02-15T12:47:22;8.70;99.90
5711;DHT22;61291;52.524;13.422;2023-02-15T12:50:21;8.80;99.90
5711;DHT22;61291;52.524;13.422;2023-02-15T12:52:49;9.00;99.90
5711;DHT22;61291;52.524;13.422;2023-02-15T12:55:25;9.10;99.90
5711;DHT22;61291;52.524;13.422;2023-02-15T12:58:15;9.20;99.90
5711;DHT22;61291;52.524;13.422;2023-02-15T13:00:41;9.40;99.90
5711;DHT22;61291;52.524;13.422;2023-02-15T13:03:19;9.50;99.90
5711;DHT22;61291;52.524;13.422;2023-02-15T13:05:50;9.70;99.90
5711;DHT22;61291;52.524;13.422;2023-02-15T13:08:19;9.90;99.90
5711;DHT22;61291;52.524;13.422;2023-02-15T13:13:23;10.10;99.90
5711;DHT22;61291;52.524;13.422;2023-02-15T13:15:58;10.20;99.90
5711;DHT22;61291;52.524;13.422;2023-02-15T13:18:51;10.30;99.90
5711;DHT22;61291;52.524;13.422;2023-02-15T13:21:24;10.50;99.90
5711;DHT22;61291;52.524;13.422;2023-02-15T13:23:55;10.60;99.90
5711;DHT22;61291;52.524;13.422;2023-02-15T13:26:23;10.60;99.90
5711;DHT22;61291;52.524;13.422;2023-02-15T13:28:56;10.60;99.90
5711;DHT22;61291;52.524;13.422;2023-02-15T13:31:26;10.70;99.90
5711;DHT22;61291;52.524;13.422;2023-02-15T13:34:00;10.70;99.90
5711;DHT22;61291;52.524;13.422;2023-02-15T13:36:44;10.80;99.90
5711;DHT22;61291;52.524;13.422;2023-02-15T13:39:37;11.00;99.90
5711;DHT22;61291;52.524;13.422;2023-02-15T13:45:38;11.30;99.90
5711;DHT22;61291;52.524;13.422;2023-02-15T13:51:02;11.40;99.90
5711;DHT22;61291;52.524;13.422;2023-02-15T13:53:47;11.40;99.90
5711;DHT22;61291;52.524;13.422;2023-02-15T13:56:49;11.50;99.90
5711;DHT22;61291;52.524;13.422;2023-02-15T14:02:30;11.40;99.90
5711;DHT22;61291;52.524;13.422;2023-02-15T14:05:15;11.30;99.90
5711;DHT22;61291;52.524;13.422;2023-02-15T14:10:51;11.20;99.90
5711;DHT22;61291;52.524;13.422;2023-02-15T14:19:37;10.80;99.90
5711;DHT22;61291;52.524;13.422;2023-02-15T14:22:38;10.80;99.90
5711;DHT22;61291;52.524;13.422;2023-02-15T14:30:37;10.80;99.90
5711;DHT22;61291;52.524;13.422;2023-02-15T14:33:07;10.80;99.90
5711;DHT22;61291;52.524;13.422;2023-02-15T14:35:34;10.90;99.90
5711;DHT22;61291;52.524;13.422;2023-02-15T14:40:54;10.90;99.90
5711;DHT22;61291;52.524;13.422;2023-02-15T14:48:54;10.80;99.90
5711;DHT22;61291;52.524;13.422;2023-02-15T14:54:07;10.80;99.90
5711;DHT22;61291;52.524;13.422;2023-02-15T14:56:32;10.60;99.90
5711;DHT22;61291;52.524;13.422;2023-02-15T14:59:01;10.50;99.90
5711;DHT22;61291;52.524;13.422;2023-02-15T15:01:36;10.50;99.90
5711;DHT22;61291;52.524;13.422;2023-02-15T15:04:12;10.40;99.90
5711;DHT22;61291;52.524;13.422;2023-02-15T15:06:41;10.30;99.90
5711;DHT22;61291;52.524;13.422;2023-02-15T15:09:14;10.30;99.90
5711;DHT22;61291;52.524;13.422;2023-02-15T15:11:49;10.20;99.90
5711;DHT22;61291;52.524;13.422;2023-02-15T15:17:02;10.10;99.90
5711;DHT22;61291;52.524;13.422;2023-02-15T15:22:21;10.30;99.90
5711;DHT22;61291;52.524;13.422;2023-02-15T15:24:49;10.40;99.90
5711;DHT22;61291;52.524;13.422;2023-02-15T15:27:43;10.20;99.90
5711;DHT22;61291;52.524;13.422;2023-02-15T15:41:26;9.60;99.90
5711;DHT22;61291;52.524;13.422;2023-02-15T15:49:45;8.90;99.90
5711;DHT22;61291;52.524;13.422;2023-02-15T15:52:18;8.80;99.90
5711;DHT22;61291;52.524;13.422;2023-02-15T15:54:46;8.70;99.90
5711;DHT22;61291;52.524;13.422;2023-02-15T15:57:21;8.60;99.90
5711;DHT22;61291;52.524;13.422;2023-02-15T15:59:49;8.50;99.90
5711;DHT22;61291;52.524;13.422;2023-02-15T16:02:16;8.40;99.90
5711;DHT22;61291;52.524;13.422;2023-02-15T16:04:45;8.20;99.90
5711;DHT22;61291;52.524;13.422;2023-02-15T16:07:33;8.00;99.90
5711;DHT22;61291;52.524;13.422;2023-02-15T16:10:06;7.90;99.90
5711;DHT22;61291;52.524;13.422;2023-02-15T16:12:38;7.80;99.90
5711;DHT22;61291;52.524;13.422;2023-02-15T16:15:14;7.70;99.90
5711;DHT22;61291;52.524;13.422;2023-02-15T16:17:41;7.70;99.90
5711;DHT22;61291;52.524;13.422;2023-02-15T16:20:18;7.50;99.90
5711;DHT22;61291;52.524;13.422;2023-02-15T16:22:48;7.40;99.90
5711;DHT22;61291;52.524;13.422;2023-02-15T16:25:31;7.50;99.90
5711;DHT22;61291;52.524;13.422;2023-02-15T16:28:11;7.50;99.90
5711;DHT22;61291;52.524;13.422;2023-02-15T16:30:37;7.40;99.90
5711;DHT22;61291;52.524;13.422;2023-02-15T16:33:13;7.30;99.90
5711;DHT22;61291;52.524;13.422;2023-02-15T16:35:55;7.20;99.90
5711;DHT22;61291;52.524;13.422;2023-02-15T16:41:23;7.20;99.90
5711;DHT22;61291;52.524;13.422;2023-02-15T16:43:50;7.10;99.90
5711;DHT22;61291;52.524;13.422;2023-02-15T16:46:46;7.10;99.90
5711;DHT22;61291;52.524;13.422;2023-02-15T16:49:25;7.10;99.90
5711;DHT22;61291;52.524;13.422;2023-02-15T16:51:59;6.90;99.90
5711;DHT22;61291;52.524;13.422;2023-02-15T16:54:28;6.80;99.90
5711;DHT22;61291;52.524;13.422;2023-02-15T16:56:56;6.70;99.90
5711;DHT22;61291;52.524;13.422;2023-02-15T16:59:41;6.60;99.90
5711;DHT22;61291;52.524;13.422;2023-02-15T17:02:16;6.60;99.90
5711;DHT22;61291;52.524;13.422;2023-02-15T17:04:42;6.70;99.90
5711;DHT22;61291;52.524;13.422;2023-02-15T17:07:20;6.70;99.90
5711;DHT22;61291;52.524;13.422;2023-02-15T17:09:53;6.80;99.90
5711;DHT22;61291;52.524;13.422;2023-02-15T17:12:51;6.80;99.90
5711;DHT22;61291;52.524;13.422;2023-02-15T17:17:52;6.70;99.90
5711;DHT22;61291;52.524;13.422;2023-02-15T17:20:20;6.60;99.90
5711;DHT22;61291;52.524;13.422;2023-02-15T17:22:46;6.40;99.90
5711;DHT22;61291;52.524;13.422;2023-02-15T17:25:19;6.30;99.90
5711;DHT22;61291;52.524;13.422;2023-02-15T17:27:51;6.10;99.90
5711;DHT22;61291;52.524;13.422;2023-02-15T17:30:31;6.00;99.90
5711;DHT22;61291;52.524;13.422;2023-02-15T17:33:02;6.00;99.90
5711;DHT22;61291;52.524;13.422;2023-02-15T17:35:30;5.90;99.90
5711;DHT22;61291;52.524;13.422;2023-02-15T17:38:19;5.90;99.90
5711;DHT22;61291;52.524;13.422;2023-02-15T17:40:45;5.80;99.90
5711;DHT22;61291;52.524;13.422;2023-02-15T17:43:12;5.60;99.90
5711;DHT22;61291;52.524;13.422;2023-02-15T17:45:49;5.60;99.90
5711;DHT22;61291;52.524;13.422;2023-02-15T17:48:21;5.60;99.90
5711;DHT22;61291;52.524;13.422;2023-02-15T17:50:48;5.50;99.90
5711;DHT22;61291;52.524;13.422;2023-02-15T17:53:16;5.40;99.90
5711;DHT22;61291;52.524;13.422;2023-02-15T17:55:44;5.40;99.90
5711;DHT22;61291;52.524;13.422;2023-02-15T17:58:15;5.50;99.90
5711;DHT22;61291;52.524;13.422;2023-02-15T18:01:05;5.40;99.90
5711;DHT22;61291;52.524;13.422;2023-02-15T18:03:49;5.40;99.90
5711;DHT22;61291;52.524;13.422;2023-02-15T18:06:36;5.30;99.90
5711;DHT22;61291;52.524;13.422;2023-02-15T18:09:21;5.20;99.90
5711;DHT22;61291;52.524;13.422;2023-02-15T18:14:54;5.10;99.90
5711;DHT22;61291;52.524;13.422;2023-02-15T18:17:29;5.00;99.90
5711;DHT22;61291;52.524;13.422;2023-02-15T18:19:57;5.00;99.90
5711;DHT22;61291;52.524;13.422;2023-02-15T18:22:23;5.00;99.90
5711;DHT22;61291;52.524;13.422;2023-02-15T18:24:49;5.00;99.90
5711;DHT22;61291;52.524;13.422;2023-02-15T18:27:15;4.90;99.90
5711;DHT22;61291;52.524;13.422;2023-02-15T18:29:41;4.90;99.90
5711;DHT22;61291;52.524;13.422;2023-02-15T18:32:15;4.80;99.90
5711;DHT22;61291;52.524;13.422;2023-02-15T18:34:42;4.80;99.90
5711;DHT22;61291;52.524;13.422;2023-02-15T18:37:14;4.80;99.90
5711;DHT22;61291;52.524;13.422;2023-02-15T18:39:48;4.90;99.90